createdAt,value
2018-10-17T00:01:50.852Z,23.90
2018-10-17T00:04:20.002Z,23.90
2018-10-17T00:06:49.399Z,23.90
2018-10-17T00:09:18.853Z,23.90
2018-10-17T00:11:48.129Z,23.90
2018-10-17T00:14:17.415Z,23.90
2018-10-17T00:16:47.068Z,23.90
2018-10-17T00:19:17.489Z,23.90
2018-10-17T00:21:46.836Z,23.90
2018-10-17T00:24:16.136Z,23.90
2018-10-17T00:26:45.536Z,23.90
2018-10-17T00:29:15.019Z,23.90
2018-10-17T00:31:44.353Z,23.90
2018-10-17T00:34:13.625Z,23.90
2018-10-17T00:36:42.944Z,23.90
2018-10-17T00:39:12.655Z,23.90
2018-10-17T00:41:42.081Z,23.90
2018-10-17T00:44:11.433Z,23.90
2018-10-17T00:46:40.859Z,23.90
2018-10-17T00:49:10.188Z,23.90
2018-10-17T00:51:39.504Z,23.90
2018-10-17T00:54:08.667Z,23.90
2018-10-17T00:56:37.906Z,23.90
2018-10-17T00:59:09.524Z,23.90
2018-10-17T01:01:39.308Z,23.80
2018-10-17T01:04:09.007Z,23.90
2018-10-17T01:06:38.849Z,23.90
2018-10-17T01:09:10.427Z,23.90
2018-10-17T01:11:40.198Z,23.90
2018-10-17T01:14:10.017Z,23.90
2018-10-17T01:16:39.263Z,23.90
2018-10-17T01:19:08.726Z,23.80
2018-10-17T01:21:38.551Z,23.80
2018-10-17T01:24:07.947Z,23.80
2018-10-17T01:26:37.041Z,23.80
2018-10-17T01:29:06.489Z,23.80
2018-10-17T01:31:35.578Z,23.80
2018-10-17T01:34:05.993Z,23.80
2018-10-17T01:36:35.328Z,23.80
2018-10-17T01:39:06.867Z,23.80
2018-10-17T01:41:36.124Z,23.80
2018-10-17T01:44:05.655Z,23.80
2018-10-17T01:46:35.027Z,23.80
2018-10-17T01:49:04.260Z,23.80
2018-10-17T01:51:33.621Z,23.80
2018-10-17T01:54:02.902Z,23.80
2018-10-17T01:56:32.334Z,23.80
2018-10-17T01:59:01.685Z,23.80
2018-10-17T02:01:31.112Z,23.80
2018-10-17T02:04:00.486Z,23.80
2018-10-17T02:06:29.990Z,23.80
2018-10-17T02:08:59.389Z,23.80
2018-10-17T02:11:28.761Z,23.80
2018-10-17T02:13:58.252Z,23.80
2018-10-17T02:16:27.504Z,23.80
2018-10-17T02:18:56.897Z,23.80
2018-10-17T02:21:26.259Z,23.80
2018-10-17T02:23:55.904Z,23.80
2018-10-17T02:26:25.268Z,23.80
2018-10-17T02:28:54.578Z,23.80
2018-10-17T02:31:23.951Z,23.80
2018-10-17T02:33:53.304Z,23.80
2018-10-17T02:36:22.679Z,23.80
2018-10-17T02:38:51.817Z,23.80
2018-10-17T02:41:21.440Z,23.80
2018-10-17T02:43:50.748Z,23.80
2018-10-17T02:46:20.047Z,23.80
2018-10-17T02:48:49.391Z,23.80
2018-10-17T02:51:18.773Z,23.80
2018-10-17T02:53:48.140Z,23.80
2018-10-17T02:56:17.520Z,23.80
2018-10-17T02:58:46.776Z,23.80
2018-10-17T03:01:16.038Z,23.80
2018-10-17T03:03:45.372Z,23.80
2018-10-17T03:06:15.348Z,23.80
2018-10-17T03:08:44.768Z,23.80
2018-10-17T03:11:14.093Z,23.80
2018-10-17T03:13:43.423Z,23.80
2018-10-17T03:16:12.619Z,23.70
2018-10-17T03:18:42.009Z,23.80
2018-10-17T03:21:11.150Z,23.80
2018-10-17T03:23:40.485Z,23.80
2018-10-17T03:26:09.718Z,23.80
2018-10-17T03:28:38.845Z,23.80
2018-10-17T03:31:08.399Z,23.80
2018-10-17T03:33:37.622Z,23.80
2018-10-17T03:36:06.944Z,23.80
2018-10-17T03:38:36.267Z,23.70
2018-10-17T03:41:05.789Z,23.80
2018-10-17T03:43:35.187Z,23.80
2018-10-17T03:46:04.460Z,23.80
2018-10-17T03:48:33.769Z,23.80
2018-10-17T03:51:03.030Z,23.80
2018-10-17T03:53:32.265Z,23.70
2018-10-17T03:56:01.399Z,23.80
2018-10-17T03:58:30.715Z,23.80
2018-10-17T04:00:59.974Z,23.70
2018-10-17T04:03:29.163Z,23.70
2018-10-17T04:05:58.304Z,23.80
2018-10-17T04:08:27.479Z,23.70
2018-10-17T04:10:56.658Z,23.70
2018-10-17T04:13:25.861Z,23.70
2018-10-17T04:15:55.194Z,23.70
2018-10-17T04:18:24.269Z,23.80
2018-10-17T04:20:53.477Z,23.90
2018-10-17T04:23:22.763Z,23.90
2018-10-17T04:25:52.079Z,24.00
2018-10-17T04:28:21.278Z,24.00
2018-10-17T04:30:50.532Z,24.00
2018-10-17T04:33:19.856Z,24.00
2018-10-17T04:35:49.082Z,24.10
2018-10-17T04:38:18.988Z,24.10
2018-10-17T04:40:48.099Z,24.00
2018-10-17T04:43:17.475Z,24.10
2018-10-17T04:45:46.527Z,24.10
2018-10-17T04:48:15.845Z,24.10
2018-10-17T04:50:45.167Z,24.10
2018-10-17T04:53:14.448Z,24.10
2018-10-17T04:55:43.644Z,24.10
2018-10-17T04:58:12.782Z,24.10
2018-10-17T05:00:41.970Z,24.10
2018-10-17T05:03:11.043Z,24.10
2018-10-17T05:05:40.045Z,24.10
2018-10-17T05:08:09.091Z,24.10
2018-10-17T05:10:38.245Z,24.10
2018-10-17T05:13:07.635Z,24.10
2018-10-17T05:15:36.836Z,24.10
2018-10-17T05:18:06.304Z,24.10
2018-10-17T05:20:35.493Z,24.10
2018-10-17T05:23:05.111Z,24.10
2018-10-17T05:25:34.222Z,24.10
2018-10-17T05:28:03.509Z,24.10
2018-10-17T05:30:32.626Z,24.10
2018-10-17T05:33:02.087Z,24.10
2018-10-17T05:35:31.151Z,24.10
2018-10-17T05:38:00.472Z,24.10
2018-10-17T05:40:29.721Z,24.10
2018-10-17T05:42:58.862Z,24.10
2018-10-17T05:45:34.433Z,24.10
2018-10-17T05:48:03.659Z,24.10
2018-10-17T05:50:32.758Z,24.10
2018-10-17T05:53:02.011Z,24.00
2018-10-17T05:55:30.945Z,24.00
2018-10-17T05:58:00.177Z,24.10
2018-10-17T06:00:29.353Z,24.10
2018-10-17T06:02:58.527Z,24.00
2018-10-17T06:05:27.767Z,21.40
2018-10-17T06:07:57.134Z,19.80
2018-10-17T06:10:26.241Z,19.30
2018-10-17T06:12:55.523Z,18.80
2018-10-17T06:15:24.681Z,20.10
2018-10-17T06:17:53.854Z,21.30
2018-10-17T06:20:23.121Z,21.90
2018-10-17T06:22:52.426Z,22.10
2018-10-17T06:25:21.734Z,22.10
2018-10-17T06:27:50.932Z,22.00
2018-10-17T06:30:20.000Z,22.00
2018-10-17T06:32:49.171Z,22.00
2018-10-17T06:35:18.419Z,21.90
2018-10-17T06:37:47.515Z,22.10
2018-10-17T06:40:17.068Z,22.30
2018-10-17T06:42:46.057Z,22.70
2018-10-17T06:45:15.107Z,23.00
2018-10-17T06:47:44.362Z,23.10
2018-10-17T06:50:13.535Z,23.10
2018-10-17T06:52:42.685Z,23.20
2018-10-17T06:55:11.955Z,23.20
2018-10-17T06:57:40.988Z,23.30
2018-10-17T07:00:11.237Z,23.30
2018-10-17T07:02:40.464Z,23.40
2018-10-17T07:05:10.863Z,23.30
2018-10-17T07:07:41.443Z,23.50
2018-10-17T07:10:10.746Z,23.50
2018-10-17T07:12:39.760Z,23.50
2018-10-17T07:15:09.178Z,23.50
2018-10-17T07:17:38.457Z,23.60
2018-10-17T07:20:09.474Z,23.60
2018-10-17T07:22:39.700Z,23.50
2018-10-17T07:28:34.994Z,23.50
2018-10-17T07:31:06.107Z,23.50
2018-10-17T07:33:36.315Z,23.60
2018-10-17T07:38:54.025Z,23.80
2018-10-17T07:41:24.702Z,23.90
2018-10-17T07:43:55.474Z,23.90
2018-10-17T07:46:26.221Z,24.10
2018-10-17T07:48:56.588Z,24.10
2018-10-17T07:51:27.654Z,24.20
2018-10-17T07:53:57.581Z,24.30
2018-10-17T07:56:28.226Z,24.40
2018-10-17T07:58:58.044Z,24.10
2018-10-17T08:01:28.348Z,24.10
2018-10-17T08:03:57.988Z,23.90
2018-10-17T08:06:27.718Z,23.70
2018-10-17T08:08:57.825Z,23.70
2018-10-17T08:11:27.752Z,23.80
2018-10-17T08:13:57.502Z,23.90
2018-10-17T08:16:27.550Z,23.90
2018-10-17T08:18:57.999Z,23.70
2018-10-17T08:21:28.666Z,23.70
2018-10-17T08:23:59.364Z,23.60
2018-10-17T08:26:29.783Z,23.20
2018-10-17T08:28:59.942Z,23.20
2018-10-17T08:31:30.046Z,23.00
2018-10-17T08:34:00.661Z,23.00
2018-10-17T08:36:30.490Z,23.20
2018-10-17T08:38:59.891Z,23.30
2018-10-17T08:41:29.887Z,23.20
2018-10-17T08:44:01.160Z,23.10
2018-10-17T08:46:30.874Z,23.30
2018-10-17T08:49:00.698Z,23.30
2018-10-17T08:51:30.457Z,23.10
2018-10-17T08:53:59.864Z,23.30
2018-10-17T08:56:29.674Z,23.20
2018-10-17T08:58:59.350Z,23.10
2018-10-17T09:01:29.265Z,23.10
2018-10-17T09:03:58.969Z,23.10
2018-10-17T09:06:29.189Z,23.20
2018-10-17T09:08:58.645Z,23.30
2018-10-17T09:11:28.634Z,23.30
2018-10-17T09:13:58.600Z,23.40
2018-10-17T09:16:28.621Z,23.30
2018-10-17T09:18:58.637Z,23.20
2018-10-17T09:21:28.755Z,23.20
2018-10-17T09:23:58.912Z,23.40
2018-10-17T09:26:28.352Z,23.50
2018-10-17T09:28:57.895Z,23.40
2018-10-17T09:31:27.447Z,23.40
2018-10-17T09:33:56.833Z,23.40
2018-10-17T09:36:27.081Z,23.40
2018-10-17T09:38:59.648Z,23.40
2018-10-17T09:41:29.479Z,23.50
2018-10-17T09:43:59.275Z,23.60
2018-10-17T09:46:28.968Z,23.50
2018-10-17T09:48:58.539Z,23.50
2018-10-17T09:51:28.522Z,23.50
2018-10-17T09:53:58.159Z,23.50
2018-10-17T09:56:28.018Z,23.50
2018-10-17T09:58:57.900Z,23.60
2018-10-17T10:01:31.322Z,23.60
2018-10-17T10:04:00.616Z,23.70
2018-10-17T10:06:30.268Z,23.70
2018-10-17T10:09:00.779Z,23.70
2018-10-17T10:11:31.244Z,23.60
2018-10-17T10:14:01.013Z,23.60
2018-10-17T10:16:31.297Z,23.60
2018-10-17T10:19:00.702Z,23.50
2018-10-17T10:21:30.543Z,23.60
2018-10-17T10:24:00.891Z,23.60
2018-10-17T10:26:30.471Z,23.60
2018-10-17T10:29:01.618Z,23.70
2018-10-17T10:31:31.851Z,23.70
2018-10-17T10:34:01.891Z,23.60
2018-10-17T10:36:32.440Z,23.60
2018-10-17T10:39:02.807Z,23.60
2018-10-17T10:41:32.967Z,23.70
2018-10-17T10:44:02.737Z,23.70
2018-10-17T10:46:32.723Z,23.70
2018-10-17T10:49:02.908Z,23.60
2018-10-17T10:51:32.636Z,23.60
2018-10-17T10:54:01.817Z,23.60
2018-10-17T10:56:31.872Z,23.70
2018-10-17T10:59:01.583Z,23.80
2018-10-17T11:01:31.158Z,23.80
2018-10-17T11:04:00.796Z,23.80
2018-10-17T11:06:30.867Z,23.80
2018-10-17T11:09:00.671Z,23.90
2018-10-17T11:11:30.037Z,23.90
2018-10-17T11:13:59.686Z,23.90
2018-10-17T11:16:29.885Z,24.00
2018-10-17T11:18:59.561Z,23.90
2018-10-17T11:21:29.810Z,23.90
2018-10-17T11:23:59.672Z,23.80
2018-10-17T11:26:30.188Z,23.80
2018-10-17T11:29:00.012Z,23.80
2018-10-17T11:31:36.478Z,23.90
2018-10-17T11:34:06.814Z,23.90
2018-10-17T11:36:36.887Z,23.90
2018-10-17T11:39:08.747Z,23.90
2018-10-17T11:41:38.280Z,24.00
2018-10-17T11:44:07.788Z,24.10
2018-10-17T11:46:37.486Z,24.10
2018-10-17T11:49:07.341Z,24.10
2018-10-17T11:51:37.154Z,24.10
2018-10-17T11:54:07.490Z,24.10
2018-10-17T11:56:37.424Z,24.10
2018-10-17T11:59:07.060Z,24.00
2018-10-17T12:01:36.927Z,24.10
2018-10-17T12:04:06.943Z,24.10
2018-10-17T12:06:36.463Z,24.10
2018-10-17T12:09:09.176Z,24.10
2018-10-17T12:11:39.628Z,24.10
2018-10-17T12:14:09.837Z,24.10
2018-10-17T12:16:39.443Z,24.30
2018-10-17T12:19:09.804Z,24.20
2018-10-17T12:21:39.607Z,24.20
2018-10-17T12:24:09.644Z,24.20
2018-10-17T12:26:39.485Z,24.30
2018-10-17T12:29:09.570Z,24.40
2018-10-17T12:31:40.424Z,24.30
2018-10-17T12:34:10.030Z,24.40
2018-10-17T12:36:39.786Z,24.30
2018-10-17T12:39:13.078Z,24.30
2018-10-17T12:41:43.540Z,24.20
2018-10-17T12:44:13.022Z,24.20
2018-10-17T12:46:42.873Z,24.30
2018-10-17T12:49:13.048Z,24.30
2018-10-17T12:51:42.732Z,24.30
2018-10-17T12:54:12.312Z,24.30
2018-10-17T12:56:41.959Z,24.30
2018-10-17T12:59:11.905Z,24.30
2018-10-17T13:01:41.539Z,24.30
2018-10-17T13:04:11.548Z,24.40
2018-10-17T13:06:40.998Z,24.30
2018-10-17T13:09:12.060Z,24.40
2018-10-17T13:11:42.148Z,24.40
2018-10-17T13:14:12.291Z,24.50
2018-10-17T13:16:42.062Z,24.50
2018-10-17T13:19:12.190Z,24.50
2018-10-17T13:21:41.681Z,24.60
2018-10-17T13:24:11.158Z,24.70
2018-10-17T13:26:40.865Z,24.70
2018-10-17T13:29:10.772Z,24.80
2018-10-17T13:31:40.290Z,24.60
2018-10-17T13:34:09.868Z,24.60
2018-10-17T13:36:39.353Z,24.50
2018-10-17T13:39:10.847Z,24.60
2018-10-17T13:41:40.234Z,24.70
2018-10-17T13:44:10.660Z,24.70
2018-10-17T13:46:40.568Z,24.80
2018-10-17T13:49:10.437Z,24.90
2018-10-17T13:51:39.823Z,24.80
2018-10-17T13:54:09.252Z,24.80
2018-10-17T13:56:38.830Z,24.80
2018-10-17T13:59:09.147Z,24.70
2018-10-17T14:01:38.877Z,24.60
2018-10-17T14:04:08.514Z,24.60
2018-10-17T14:06:39.082Z,24.60
2018-10-17T14:09:10.152Z,24.50
2018-10-17T14:11:39.897Z,24.50
2018-10-17T14:14:09.410Z,24.60
2018-10-17T14:16:39.005Z,24.70
2018-10-17T14:19:08.680Z,24.80
2018-10-17T14:21:37.994Z,24.90
2018-10-17T14:24:07.903Z,24.80
2018-10-17T14:26:37.570Z,24.80
2018-10-17T14:29:08.028Z,24.80
2018-10-17T14:31:37.728Z,24.80
2018-10-17T14:34:07.563Z,24.80
2018-10-17T14:36:37.170Z,24.80
2018-10-17T14:39:09.597Z,24.80
2018-10-17T14:41:39.631Z,24.80
2018-10-17T14:44:09.634Z,24.80
2018-10-17T14:46:39.258Z,24.90
2018-10-17T14:49:09.231Z,24.80
2018-10-17T14:51:39.101Z,24.80
2018-10-17T14:54:08.925Z,24.90
2018-10-17T14:56:38.681Z,24.90
2018-10-17T14:59:08.359Z,24.90
2018-10-17T15:01:37.918Z,24.80
2018-10-17T15:04:08.107Z,25.00
2018-10-17T15:06:37.656Z,25.00
2018-10-17T15:09:09.647Z,24.90
2018-10-17T15:11:40.447Z,24.80
2018-10-17T15:14:09.987Z,24.80
2018-10-17T15:16:39.644Z,24.80
2018-10-17T15:19:09.752Z,24.80
2018-10-17T15:21:40.327Z,24.70
2018-10-17T15:24:10.321Z,24.70
2018-10-17T15:26:40.473Z,24.60
2018-10-17T15:29:10.987Z,24.70
2018-10-17T15:31:41.059Z,24.70
2018-10-17T15:34:11.186Z,24.50
2018-10-17T15:36:41.118Z,24.60
2018-10-17T15:39:12.205Z,24.60
2018-10-17T15:41:42.122Z,24.60
2018-10-17T15:44:12.754Z,24.60
2018-10-17T15:46:42.376Z,24.50
2018-10-17T15:49:12.081Z,24.50
2018-10-17T15:51:41.957Z,24.50
2018-10-17T15:54:11.820Z,24.50
2018-10-17T15:56:41.202Z,24.40
2018-10-17T15:59:11.477Z,24.40
2018-10-17T16:01:41.350Z,24.40
2018-10-17T16:04:11.619Z,24.30
2018-10-17T16:06:41.513Z,24.30
2018-10-17T16:09:12.451Z,24.20
2018-10-17T16:11:42.640Z,24.30
2018-10-17T16:14:12.999Z,24.20
2018-10-17T16:16:42.627Z,24.20
2018-10-17T16:19:12.911Z,24.10
2018-10-17T16:21:42.825Z,24.00
2018-10-17T16:24:14.041Z,24.00
2018-10-17T16:26:43.480Z,24.00
2018-10-17T16:29:13.702Z,24.00
2018-10-17T16:31:54.158Z,24.00
2018-10-17T16:34:23.844Z,23.90
2018-10-17T16:36:53.962Z,24.00
2018-10-17T16:39:23.487Z,24.00
2018-10-17T16:41:53.142Z,24.10
2018-10-17T16:44:22.860Z,24.20
2018-10-17T16:46:52.615Z,24.30
2018-10-17T16:49:22.546Z,24.30
2018-10-17T16:51:52.280Z,24.40
2018-10-17T16:54:22.227Z,24.40
2018-10-17T16:56:52.154Z,24.40
2018-10-17T16:59:21.955Z,24.40
2018-10-17T17:01:51.611Z,24.40
2018-10-17T17:04:21.558Z,24.40
2018-10-17T17:06:50.949Z,24.40
2018-10-17T17:09:20.883Z,24.40
2018-10-17T17:11:50.625Z,24.40
2018-10-17T17:14:20.287Z,24.50
2018-10-17T17:16:49.827Z,24.40
2018-10-17T17:19:19.739Z,24.40
2018-10-17T17:21:49.404Z,24.50
2018-10-17T17:24:18.995Z,24.50
2018-10-17T17:26:48.902Z,24.50
2018-10-17T17:29:19.275Z,24.50
2018-10-17T17:31:49.111Z,24.50
2018-10-17T17:34:18.759Z,24.40
2018-10-17T17:36:49.012Z,24.50
2018-10-17T17:39:19.491Z,24.50
2018-10-17T17:41:49.138Z,24.50
2018-10-17T17:44:19.168Z,24.50
2018-10-17T17:46:49.019Z,24.50
2018-10-17T17:49:19.038Z,24.40
2018-10-17T17:51:49.041Z,24.40
2018-10-17T17:54:18.885Z,24.40
2018-10-17T17:56:48.870Z,24.40
2018-10-17T17:59:18.534Z,24.40
2018-10-17T18:01:48.319Z,24.40
2018-10-17T18:04:17.939Z,24.40
2018-10-17T18:06:48.097Z,24.40
2018-10-17T18:09:17.897Z,24.30
2018-10-17T18:11:48.400Z,24.30
2018-10-17T18:14:17.768Z,24.30
2018-10-17T18:16:47.994Z,24.30
2018-10-17T18:19:17.551Z,24.30
2018-10-17T18:21:47.438Z,24.30
2018-10-17T18:24:16.824Z,24.30
2018-10-17T18:26:46.611Z,24.30
2018-10-17T18:29:16.136Z,24.30
2018-10-17T18:31:46.304Z,24.30
2018-10-17T18:34:16.547Z,24.30
2018-10-17T18:36:46.561Z,24.30
2018-10-17T18:39:16.066Z,24.30
2018-10-17T18:41:45.817Z,24.30
2018-10-17T18:44:15.446Z,24.30
2018-10-17T18:46:44.922Z,24.30
2018-10-17T18:49:14.690Z,24.20
2018-10-17T18:51:44.495Z,24.20
2018-10-17T18:54:14.475Z,24.20
2018-10-17T18:56:43.927Z,24.30
2018-10-17T18:59:13.600Z,24.20
2018-10-17T19:01:43.718Z,24.20
2018-10-17T19:04:13.340Z,24.20
2018-10-17T19:06:43.263Z,24.20
2018-10-17T19:09:14.094Z,24.20
2018-10-17T19:11:43.678Z,24.20
2018-10-17T19:14:13.257Z,24.20
2018-10-17T19:16:43.658Z,24.20
2018-10-17T19:19:13.457Z,24.20
2018-10-17T19:21:43.273Z,24.20
2018-10-17T19:24:13.177Z,24.20
2018-10-17T19:26:42.651Z,24.20
2018-10-17T19:29:12.773Z,24.20
2018-10-17T19:31:42.292Z,24.20
2018-10-17T19:34:11.914Z,24.20
2018-10-17T19:36:42.064Z,24.20
2018-10-17T19:39:14.152Z,24.20
2018-10-17T19:41:44.040Z,24.20
2018-10-17T19:44:13.433Z,24.20
2018-10-17T19:46:43.395Z,24.20
2018-10-17T19:49:12.975Z,24.20
2018-10-17T19:51:42.445Z,24.10
2018-10-17T19:54:12.273Z,24.10
2018-10-17T19:56:41.642Z,24.10
2018-10-17T19:59:11.227Z,24.10
2018-10-17T20:01:41.258Z,24.10
2018-10-17T20:04:11.240Z,24.20
2018-10-17T20:06:41.336Z,24.20
2018-10-17T20:09:12.034Z,24.10
2018-10-17T20:11:41.762Z,24.10
2018-10-17T20:14:11.431Z,24.10
2018-10-17T20:16:41.124Z,24.10
2018-10-17T20:19:10.699Z,24.10
2018-10-17T20:21:40.628Z,24.10
2018-10-17T20:24:10.267Z,24.10
2018-10-17T20:26:39.794Z,24.10
2018-10-17T20:29:09.424Z,24.10
2018-10-17T20:31:39.255Z,24.10
2018-10-17T20:34:08.937Z,24.10
2018-10-17T20:36:38.382Z,24.10
2018-10-17T20:39:14.306Z,24.10
2018-10-17T20:41:44.537Z,24.10
2018-10-17T20:44:14.443Z,24.10
2018-10-17T20:46:44.605Z,24.10
2018-10-17T20:49:14.677Z,24.10
2018-10-17T20:51:45.091Z,24.10
2018-10-17T20:54:14.955Z,24.10
2018-10-17T20:56:45.341Z,24.00
2018-10-17T20:59:14.951Z,24.10
2018-10-17T21:01:44.802Z,24.00
2018-10-17T21:04:14.366Z,24.10
2018-10-17T21:06:43.970Z,24.10
2018-10-17T21:09:14.776Z,24.10
2018-10-17T21:11:44.680Z,24.10
2018-10-17T21:14:14.424Z,24.10
2018-10-17T21:16:44.381Z,24.10
2018-10-17T21:19:14.040Z,24.00
2018-10-17T21:21:43.523Z,24.00
2018-10-17T21:24:13.660Z,24.10
2018-10-17T21:26:43.125Z,24.10
2018-10-17T21:29:14.268Z,24.10
2018-10-17T21:31:44.165Z,24.00
2018-10-17T21:34:13.868Z,24.00
2018-10-17T21:36:43.490Z,24.00
2018-10-17T21:39:14.120Z,24.00
2018-10-17T21:41:44.280Z,24.00
2018-10-17T21:44:14.169Z,24.00
2018-10-17T21:46:43.971Z,24.10
2018-10-17T21:49:13.234Z,24.00
2018-10-17T21:51:42.789Z,24.00
2018-10-17T21:54:12.895Z,24.00
2018-10-17T21:56:42.582Z,24.00
2018-10-17T21:59:12.418Z,24.00
2018-10-17T22:01:42.461Z,24.00
2018-10-17T22:04:11.892Z,24.00
2018-10-17T22:06:41.256Z,24.00
2018-10-17T22:09:11.791Z,24.00
2018-10-17T22:11:41.428Z,24.00
2018-10-17T22:14:11.215Z,24.00
2018-10-17T22:16:46.023Z,24.00
2018-10-17T22:19:15.644Z,24.00
2018-10-17T22:21:45.016Z,24.00
2018-10-17T22:24:14.660Z,24.00
2018-10-17T22:26:44.315Z,24.00
2018-10-17T22:29:14.363Z,24.00
2018-10-17T22:31:43.989Z,24.00
2018-10-17T22:34:13.664Z,24.00
2018-10-17T22:36:44.101Z,24.00
2018-10-17T22:39:15.634Z,24.00
2018-10-17T22:41:46.313Z,24.00
2018-10-17T22:44:16.173Z,24.00
2018-10-17T22:46:45.816Z,23.90
2018-10-17T22:49:15.940Z,24.00
2018-10-17T22:51:45.593Z,24.00
2018-10-17T22:54:15.220Z,23.90
2018-10-17T22:56:45.155Z,24.00
2018-10-17T22:59:14.681Z,24.00
2018-10-17T23:01:44.350Z,24.00
2018-10-17T23:04:14.176Z,24.00
2018-10-17T23:06:44.041Z,23.90
2018-10-17T23:09:14.632Z,24.00
2018-10-17T23:11:45.236Z,23.90
2018-10-17T23:14:14.605Z,23.90
2018-10-17T23:16:44.234Z,23.90
2018-10-17T23:19:13.764Z,23.90
2018-10-17T23:21:43.370Z,23.90
2018-10-17T23:24:12.726Z,24.00
2018-10-17T23:26:42.933Z,23.90
2018-10-17T23:29:12.805Z,23.90
2018-10-17T23:31:42.715Z,23.90
2018-10-17T23:34:12.207Z,23.90
2018-10-17T23:36:42.201Z,23.90
2018-10-17T23:39:11.479Z,23.90
2018-10-17T23:41:41.553Z,23.90
2018-10-17T23:44:11.558Z,23.90
2018-10-17T23:46:40.947Z,23.90
2018-10-17T23:49:10.866Z,23.90
2018-10-17T23:51:40.598Z,23.90
2018-10-17T23:54:10.641Z,23.90
2018-10-17T23:56:40.686Z,23.90
2018-10-17T23:59:10.320Z,23.90
